Time;durP1;ratioP1;P1;durP2;ratioP2;P2;SDS_P1;SDS_P2;PMS_P1;PMS_P2;Temp;Humidity;BMP_temperature;BMP_pressure;BME280_temperature;BME280_humidity;BME280_pressure;Samples;Min_cycle;Max_cycle;Signal;HPM_P1;HPM_P2
2022/04/23 00:01:44;;;;;;;6.50;5.22;;;10.60;99.90;;;;;;5038473;28;20029;-75
2022/04/23 00:04:11;;;;;;;5.32;4.03;;;10.60;99.90;;;;;;5038557;28;20488;-76
2022/04/23 00:06:37;;;;;;;6.13;4.85;;;10.60;99.90;;;;;;5022767;28;20041;-75
2022/04/23 00:09:03;;;;;;;5.35;4.32;;;10.60;99.90;;;;;;5037307;28;20036;-75
2022/04/23 00:11:29;;;;;;;6.35;4.70;;;10.60;99.90;;;;;;5031458;28;20090;-75
2022/04/23 00:13:58;;;;;;;6.18;5.28;;;10.50;99.90;;;;;;5022267;28;20033;-75
2022/04/23 00:16:24;;;;;;;8.30;5.90;;;10.50;99.90;;;;;;5036876;28;20317;-76
2022/04/23 00:18:51;;;;;;;6.28;5.25;;;10.50;99.90;;;;;;5041053;28;20044;-76
2022/04/23 00:21:18;;;;;;;6.43;5.28;;;10.50;99.90;;;;;;5015216;28;20036;-75
2022/04/23 00:23:46;;;;;;;6.10;5.40;;;10.50;99.90;;;;;;5020545;28;20481;-76
2022/04/23 00:26:11;;;;;;;5.85;4.70;;;10.40;99.90;;;;;;5017960;28;20031;-75
2022/04/23 00:28:37;;;;;;;6.25;5.65;;;10.40;99.90;;;;;;5040840;28;20029;-76
2022/04/23 00:31:04;;;;;;;6.60;5.10;;;10.40;99.90;;;;;;5035534;28;20064;-75
2022/04/23 00:33:30;;;;;;;5.38;4.85;;;10.30;99.90;;;;;;5070245;28;20033;-76
2022/04/23 00:35:55;;;;;;;6.93;5.93;;;10.30;99.90;;;;;;5037313;28;20067;-76
2022/04/23 00:38:21;;;;;;;8.13;6.50;;;10.40;99.90;;;;;;5037854;28;20037;-75
2022/04/23 00:40:46;;;;;;;9.75;7.25;;;10.30;99.90;;;;;;5036494;28;20051;-75
2022/04/23 00:43:34;;;;;;;10.15;7.13;;;10.30;99.90;;;;;;5036186;28;20052;-75
2022/04/23 00:46:00;;;;;;;11.65;6.97;;;10.30;99.90;;;;;;5038713;28;20037;-76
2022/04/23 00:48:26;;;;;;;6.95;6.00;;;10.30;99.90;;;;;;5036270;28;20032;-75
2022/04/23 00:50:55;;;;;;;6.80;5.40;;;10.30;99.90;;;;;;5010444;28;20041;-75
2022/04/23 00:53:21;;;;;;;9.30;6.72;;;10.20;99.90;;;;;;5030240;28;20064;-75
2022/04/23 00:55:48;;;;;;;8.25;5.68;;;10.20;99.90;;;;;;5035203;28;20052;-75
2022/04/23 00:58:17;;;;;;;12.10;8.20;;;10.20;99.90;;;;;;5041220;28;20084;-76
2022/04/23 01:00:47;;;;;;;10.27;8.50;;;10.20;99.90;;;;;;5046636;28;20036;-75
2022/04/23 01:03:13;;;;;;;11.82;8.50;;;10.20;99.90;;;;;;5030852;28;20477;-75
2022/04/23 01:05:44;;;;;;;10.93;8.50;;;10.20;99.90;;;;;;5029786;28;20032;-75
2022/04/23 01:08:12;;;;;;;8.55;7.65;;;10.20;99.90;;;;;;5037929;28;20067;-75
2022/04/23 01:10:37;;;;;;;10.55;8.43;;;10.20;99.90;;;;;;5037487;28;20500;-76
2022/04/23 01:13:03;;;;;;;8.82;7.43;;;10.20;99.90;;;;;;5037338;28;20120;-75
2022/04/23 01:15:29;;;;;;;10.60;8.35;;;10.20;99.90;;;;;;5037866;28;20102;-75
2022/04/23 01:17:54;;;;;;;11.38;9.75;;;10.20;99.90;;;;;;5036173;28;20037;-75
2022/04/23 01:20:20;;;;;;;10.00;8.07;;;10.20;99.90;;;;;;5037220;28;20069;-75
2022/04/23 01:22:46;;;;;;;10.52;8.77;;;10.20;99.90;;;;;;5034509;28;20048;-76
2022/04/23 01:25:13;;;;;;;11.15;8.93;;;10.20;99.90;;;;;;5030453;28;20035;-75
2022/04/23 01:27:41;;;;;;;10.40;8.27;;;10.20;99.90;;;;;;5037361;28;20063;-76
2022/04/23 01:30:12;;;;;;;10.15;8.23;;;10.20;99.90;;;;;;5038586;28;20040;-76
2022/04/23 01:32:38;;;;;;;10.75;9.10;;;10.10;99.90;;;;;;5036706;28;20405;-75
2022/04/23 01:35:05;;;;;;;14.25;11.10;;;10.20;99.90;;;;;;5019385;28;20044;-75
2022/04/23 01:37:31;;;;;;;16.75;12.13;;;10.20;99.90;;;;;;5013563;28;20072;-75
2022/04/23 01:39:56;;;;;;;12.07;10.05;;;10.20;99.90;;;;;;5036677;28;20049;-76
2022/04/23 01:42:22;;;;;;;10.63;8.70;;;10.10;99.90;;;;;;5036112;28;20467;-74
2022/04/23 01:44:49;;;;;;;11.73;9.30;;;10.10;99.90;;;;;;5036711;28;20037;-76
2022/04/23 01:47:15;;;;;;;15.98;11.30;;;10.10;99.90;;;;;;5030300;28;20037;-76
2022/04/23 01:49:41;;;;;;;12.82;10.48;;;10.10;99.90;;;;;;5035377;28;20048;-75
2022/04/23 01:52:07;;;;;;;15.98;12.57;;;10.20;99.90;;;;;;5018916;28;20052;-76
2022/04/23 01:54:34;;;;;;;14.25;11.52;;;10.20;99.90;;;;;;5035254;28;20098;-75
2022/04/23 01:57:00;;;;;;;13.30;10.70;;;10.20;99.90;;;;;;5029886;28;20551;-75
2022/04/23 01:59:26;;;;;;;14.45;11.00;;;10.20;99.90;;;;;;5017481;28;20040;-75
2022/04/23 02:01:52;;;;;;;13.57;10.70;;;10.30;99.90;;;;;;5037054;28;20104;-76
2022/04/23 02:04:18;;;;;;;16.13;11.23;;;10.20;99.90;;;;;;5031603;28;20468;-76
2022/04/23 02:06:44;;;;;;;11.75;10.38;;;10.30;99.90;;;;;;5017742;28;20054;-76
2022/04/23 02:09:10;;;;;;;16.10;11.43;;;10.30;99.90;;;;;;5036370;28;20040;-75
2022/04/23 02:11:35;;;;;;;12.98;11.02;;;10.30;99.90;;;;;;5047467;28;20036;-76
2022/04/23 02:14:02;;;;;;;16.00;11.50;;;10.30;99.90;;;;;;5014707;28;20124;-76
2022/04/23 02:16:32;;;;;;;12.68;10.48;;;10.30;99.90;;;;;;5041848;28;20025;-75
2022/04/23 02:18:58;;;;;;;14.63;11.43;;;10.30;99.90;;;;;;5037744;28;20458;-76
2022/04/23 02:21:27;;;;;;;14.13;12.18;;;10.30;99.90;;;;;;5013410;28;20033;-76
2022/04/23 02:23:54;;;;;;;12.02;10.52;;;10.30;99.90;;;;;;5030183;28;20082;-76
2022/04/23 02:26:20;;;;;;;13.98;11.13;;;10.30;99.90;;;;;;5035421;28;20037;-76
2022/04/23 02:28:50;;;;;;;15.88;11.35;;;10.40;99.90;;;;;;5035057;28;20112;-76
2022/04/23 02:31:16;;;;;;;11.90;9.07;;;10.30;99.90;;;;;;5036646;28;20069;-75
2022/04/23 02:33:41;;;;;;;11.82;9.77;;;10.30;99.90;;;;;;5036056;28;20191;-76
2022/04/23 02:36:08;;;;;;;10.57;8.63;;;10.30;99.90;;;;;;5034931;28;20230;-76
2022/04/23 02:38:34;;;;;;;12.77;9.75;;;10.20;99.90;;;;;;5034885;28;20033;-76
2022/04/23 02:41:00;;;;;;;13.57;11.00;;;10.20;99.90;;;;;;5036439;28;20100;-75
2022/04/23 02:43:26;;;;;;;11.98;10.02;;;10.20;99.90;;;;;;5031525;28;20035;-76
2022/04/23 02:45:52;;;;;;;10.55;8.98;;;10.20;99.90;;;;;;5037000;28;20073;-76
2022/04/23 02:48:18;;;;;;;13.45;10.60;;;10.20;99.90;;;;;;5034983;28;20522;-76
2022/04/23 02:50:44;;;;;;;10.98;9.88;;;10.20;99.90;;;;;;5014462;28;20041;-75
2022/04/23 02:53:10;;;;;;;12.35;9.65;;;10.20;99.90;;;;;;5037270;28;20928;-75
2022/04/23 02:55:37;;;;;;;11.55;10.15;;;10.20;99.90;;;;;;5038469;28;20049;-75
2022/04/23 02:58:07;;;;;;;12.88;9.52;;;10.10;99.90;;;;;;5038786;28;20476;-76
2022/04/23 03:00:34;;;;;;;11.77;9.90;;;10.10;99.90;;;;;;5039591;28;20021;-75
2022/04/23 03:02:59;;;;;;;13.20;10.85;;;10.10;99.90;;;;;;5033756;28;20048;-75
2022/04/23 03:05:26;;;;;;;12.73;10.45;;;10.00;99.90;;;;;;5040468;28;20043;-76
2022/04/23 03:07:53;;;;;;;12.38;9.95;;;10.00;99.90;;;;;;5041173;28;20602;-76
2022/04/23 03:10:19;;;;;;;12.00;9.52;;;9.90;99.90;;;;;;5037854;28;20095;-76
2022/04/23 03:12:46;;;;;;;11.40;10.07;;;10.00;99.90;;;;;;5054537;28;20493;-76
2022/04/23 03:15:19;;;;;;;14.57;10.52;;;10.00;99.90;;;;;;5038879;28;20041;-75
2022/04/23 03:17:45;;;;;;;12.63;10.60;;;10.00;99.90;;;;;;5040575;28;20041;-76
2022/04/23 03:20:12;;;;;;;12.45;11.15;;;10.00;99.90;;;;;;5019238;28;20029;-75
2022/04/23 03:22:39;;;;;;;12.45;10.95;;;10.00;99.90;;;;;;5026067;28;20036;-76
2022/04/23 03:25:06;;;;;;;10.20;8.90;;;10.00;99.90;;;;;;5022804;28;20044;-76
2022/04/23 03:27:32;;;;;;;12.35;10.73;;;10.00;99.90;;;;;;5040665;28;20722;-75
2022/04/23 03:30:02;;;;;;;12.95;10.80;;;10.00;99.90;;;;;;5038744;28;20029;-75
2022/04/23 03:32:28;;;;;;;;;;;10.00;99.90;;;;;;5039501;28;20068;-75
2022/04/23 03:34:54;;;;;;;13.65;10.65;;;10.00;99.90;;;;;;5043542;28;19938;-75
2022/04/23 03:37:19;;;;;;;11.23;9.38;;;9.90;99.90;;;;;;5037603;28;20045;-76
2022/04/23 03:39:45;;;;;;;11.52;8.23;;;9.90;99.90;;;;;;5038843;28;20033;-76
2022/04/23 03:42:11;;;;;;;10.18;8.35;;;9.80;99.90;;;;;;5038444;28;20032;-76
2022/04/23 03:44:37;;;;;;;10.73;9.63;;;9.80;99.90;;;;;;5041484;28;20078;-75
2022/04/23 03:47:03;;;;;;;10.00;8.63;;;9.80;99.90;;;;;;5037869;28;20025;-76
2022/04/23 03:49:30;;;;;;;10.75;9.48;;;9.80;99.90;;;;;;5039034;28;20045;-76
2022/04/23 03:51:56;;;;;;;10.80;9.50;;;9.70;99.90;;;;;;5039813;28;20049;-76
2022/04/23 03:54:22;;;;;;;12.07;9.55;;;9.70;99.90;;;;;;5040017;28;20024;-76
2022/04/23 03:56:48;;;;;;;12.63;10.63;;;9.70;99.90;;;;;;5015012;28;20037;-76
2022/04/23 03:59:15;;;;;;;10.63;9.52;;;9.60;99.90;;;;;;5038994;28;20029;-76
2022/04/23 04:01:41;;;;;;;11.85;10.43;;;9.60;99.90;;;;;;5032158;28;20726;-75
2022/04/23 04:04:07;;;;;;;11.45;9.85;;;9.60;99.90;;;;;;5016176;28;20124;-76
2022/04/23 04:06:33;;;;;;;11.75;9.80;;;9.60;99.90;;;;;;5039117;28;20047;-76
2022/04/23 04:08:59;;;;;;;13.23;10.60;;;9.60;99.90;;;;;;5021158;28;20025;-76
2022/04/23 04:11:24;;;;;;;13.32;11.50;;;9.60;99.90;;;;;;5032115;28;20037;-75
2022/04/23 04:13:50;;;;;;;13.45;11.35;;;9.60;99.90;;;;;;5015935;28;20037;-76
2022/04/23 04:16:18;;;;;;;17.20;12.80;;;9.60;99.90;;;;;;5041191;28;20029;-76
2022/04/23 04:18:45;;;;;;;14.13;11.35;;;9.60;99.90;;;;;;5036953;28;20493;-76
2022/04/23 04:21:13;;;;;;;14.30;11.75;;;9.50;99.90;;;;;;5037383;28;20032;-75
2022/04/23 04:23:39;;;;;;;13.43;11.48;;;9.40;99.90;;;;;;5053808;28;20090;-75
2022/04/23 04:26:07;;;;;;;12.80;10.63;;;9.40;99.90;;;;;;5053566;28;20044;-76
2022/04/23 04:28:34;;;;;;;12.65;10.68;;;9.40;99.90;;;;;;5039738;28;20040;-76
2022/04/23 04:33:44;;;;;;;11.35;9.80;;;9.30;99.90;;;;;;5031209;28;20056;-75
2022/04/23 04:36:10;;;;;;;14.90;11.65;;;9.30;99.90;;;;;;5041923;28;20033;-75
2022/04/23 04:38:36;;;;;;;12.77;10.73;;;9.30;99.90;;;;;;5021541;28;20029;-75
2022/04/23 04:41:01;;;;;;;12.65;10.32;;;9.20;99.90;;;;;;5037080;28;20028;-75
2022/04/23 04:43:27;;;;;;;11.65;9.73;;;9.20;99.90;;;;;;5036949;28;20450;-75
2022/04/23 04:45:52;;;;;;;12.23;9.65;;;9.20;99.90;;;;;;5037074;28;20036;-76
2022/04/23 04:48:18;;;;;;;10.25;9.15;;;9.20;99.90;;;;;;5038054;28;20222;-75
2022/04/23 04:50:44;;;;;;;9.82;7.93;;;9.20;99.90;;;;;;5030200;28;20083;-75
2022/04/23 04:53:09;;;;;;;10.25;9.05;;;9.20;99.90;;;;;;5069846;28;20073;-75
2022/04/23 04:55:36;;;;;;;11.48;10.15;;;9.10;99.90;;;;;;5015100;28;20525;-75
2022/04/23 04:58:03;;;;;;;12.77;11.32;;;9.10;99.90;;;;;;5032523;28;20152;-76
2022/04/23 05:00:30;;;;;;;12.13;10.90;;;9.10;99.90;;;;;;5037405;28;20506;-76
2022/04/23 05:02:56;;;;;;;12.45;10.70;;;9.10;99.90;;;;;;5013746;28;20049;-75
2022/04/23 05:05:22;;;;;;;12.20;10.90;;;9.20;99.90;;;;;;5032324;28;20067;-76
2022/04/23 05:07:47;;;;;;;11.82;10.52;;;9.10;99.90;;;;;;5053160;28;20497;-75
2022/04/23 05:10:13;;;;;;;12.07;10.02;;;9.20;99.90;;;;;;5037237;28;20050;-76
2022/04/23 05:12:38;;;;;;;11.63;10.23;;;9.20;99.90;;;;;;5036932;28;20481;-76
2022/04/23 05:15:05;;;;;;;11.52;10.30;;;9.30;99.90;;;;;;5019928;28;20033;-75
2022/04/23 05:17:30;;;;;;;10.82;9.73;;;9.30;99.90;;;;;;5033822;28;20100;-76
2022/04/23 05:19:56;;;;;;;11.10;9.65;;;9.40;99.90;;;;;;5037593;28;20036;-76
2022/04/23 05:22:22;;;;;;;12.85;11.43;;;9.40;99.90;;;;;;5036025;28;20116;-75
2022/04/23 05:24:47;;;;;;;12.77;11.18;;;9.40;99.90;;;;;;5036066;28;20025;-75
2022/04/23 05:27:13;;;;;;;13.73;12.27;;;9.50;99.90;;;;;;5015929;28;20472;-76
2022/04/23 05:29:38;;;;;;;11.32;9.80;;;9.50;99.90;;;;;;5038427;28;20110;-76
2022/04/23 05:32:04;;;;;;;12.55;10.65;;;9.60;99.90;;;;;;5034270;28;20716;-76
2022/04/23 05:34:31;;;;;;;12.88;10.43;;;9.60;99.90;;;;;;5030266;28;20041;-76
2022/04/23 05:36:57;;;;;;;14.77;12.63;;;9.70;99.90;;;;;;5035343;28;20535;-76
2022/04/23 05:39:22;;;;;;;13.52;11.10;;;9.70;99.90;;;;;;5035351;28;20025;-76
2022/04/23 05:41:48;;;;;;;11.68;10.27;;;9.80;99.90;;;;;;5028185;28;20466;-75
2022/04/23 05:44:14;;;;;;;8.98;8.07;;;9.90;99.90;;;;;;5037095;28;20028;-76
2022/04/23 05:46:39;;;;;;;12.07;10.52;;;9.90;99.90;;;;;;5036184;28;20458;-76
2022/04/23 05:49:05;;;;;;;12.25;11.02;;;9.90;99.90;;;;;;5031181;28;20091;-76
2022/04/23 05:51:30;;;;;;;14.50;12.18;;;10.00;99.90;;;;;;5037753;28;20045;-75
2022/04/23 05:53:56;;;;;;;12.32;11.02;;;10.00;99.90;;;;;;5018995;28;20489;-76
2022/04/23 05:56:21;;;;;;;16.00;12.73;;;10.10;99.90;;;;;;5033881;28;20179;-76
2022/04/23 05:58:47;;;;;;;13.38;11.32;;;10.10;99.90;;;;;;5036390;28;20052;-76
2022/04/23 06:01:12;;;;;;;11.63;10.02;;;10.20;99.90;;;;;;5031651;28;20078;-75
2022/04/23 06:03:38;;;;;;;12.00;10.80;;;10.30;99.90;;;;;;5035448;28;20037;-75
2022/04/23 06:06:04;;;;;;;12.30;10.82;;;10.40;99.90;;;;;;5017296;28;20380;-76
2022/04/23 06:08:29;;;;;;;10.20;8.82;;;10.50;99.90;;;;;;5037745;28;20115;-76
2022/04/23 06:10:55;;;;;;;12.32;10.70;;;10.50;99.90;;;;;;5036869;28;20025;-76
2022/04/23 06:13:21;;;;;;;11.50;9.30;;;10.40;99.90;;;;;;5040039;28;20680;-75
2022/04/23 06:15:46;;;;;;;12.68;11.38;;;10.30;99.90;;;;;;5030574;28;20033;-75
2022/04/23 06:18:12;;;;;;;12.35;11.07;;;10.30;99.90;;;;;;5035434;28;20045;-76
2022/04/23 06:20:37;;;;;;;12.73;11.43;;;10.30;99.90;;;;;;5038448;28;20136;-76
2022/04/23 06:23:04;;;;;;;11.30;10.02;;;10.40;99.90;;;;;;5015255;28;22289;-76
2022/04/23 06:25:31;;;;;;;10.75;9.05;;;10.50;99.90;;;;;;5029810;28;20044;-76
2022/04/23 06:27:57;;;;;;;11.02;8.95;;;10.60;99.90;;;;;;5036043;28;20096;-75
2022/04/23 06:30:22;;;;;;;11.23;10.02;;;10.70;99.90;;;;;;5042193;28;20128;-76
2022/04/23 06:32:48;;;;;;;12.35;10.07;;;10.80;99.90;;;;;;5040428;28;20342;-76
2022/04/23 06:35:13;;;;;;;9.85;8.85;;;10.90;99.90;;;;;;5038295;28;20366;-76
2022/04/23 06:37:40;;;;;;;10.73;8.82;;;11.00;99.90;;;;;;5039689;28;20743;-76
2022/04/23 06:40:11;;;;;;;10.43;9.43;;;11.10;99.90;;;;;;5031888;28;20118;-76
2022/04/23 06:42:37;;;;;;;11.82;10.63;;;11.30;99.90;;;;;;5040523;28;20066;-76
2022/04/23 06:45:04;;;;;;;13.38;10.48;;;11.70;99.90;;;;;;5038489;28;20024;-76
2022/04/23 06:47:29;;;;;;;10.00;9.00;;;12.00;99.90;;;;;;5036408;28;20040;-76
2022/04/23 06:49:59;;;;;;;10.13;9.05;;;12.20;99.90;;;;;;5044431;28;20033;-76
2022/04/23 06:52:28;;;;;;;9.45;8.55;;;12.40;99.90;;;;;;5016366;28;20045;-76
2022/04/23 06:54:54;;;;;;;10.40;9.25;;;12.50;99.90;;;;;;5037568;28;20119;-76
2022/04/23 06:57:24;;;;;;;9.73;8.68;;;12.60;99.90;;;;;;5035801;28;20033;-76
2022/04/23 06:59:50;;;;;;;10.27;9.18;;;12.70;99.90;;;;;;5031102;28;20025;-76
2022/04/23 07:02:16;;;;;;;10.32;9.23;;;12.70;99.90;;;;;;5054120;28;20037;-75
2022/04/23 07:04:42;;;;;;;11.82;10.25;;;12.90;99.90;;;;;;5016630;28;20033;-76
2022/04/23 07:07:10;;;;;;;12.45;11.15;;;12.90;99.90;;;;;;5039112;28;20068;-76
2022/04/23 07:09:36;;;;;;;11.32;10.13;;;13.00;99.90;;;;;;5032824;28;20033;-76
2022/04/23 07:12:02;;;;;;;11.57;10.45;;;13.10;99.90;;;;;;5038735;28;20060;-75
2022/04/23 07:14:27;;;;;;;13.35;11.95;;;13.10;99.90;;;;;;5031228;28;20021;-75
2022/04/23 07:16:53;;;;;;;11.70;10.35;;;13.00;99.90;;;;;;5033588;28;20037;-75
2022/04/23 07:19:19;;;;;;;13.48;12.10;;;13.20;99.90;;;;;;5053524;28;20055;-76
2022/04/23 07:21:44;;;;;;;12.45;11.25;;;13.10;99.90;;;;;;5038767;28;20139;-75
2022/04/23 07:24:11;;;;;;;12.50;11.20;;;13.30;99.90;;;;;;5020542;28;20096;-76
2022/04/23 07:26:38;;;;;;;12.73;11.43;;;13.30;99.90;;;;;;5037138;28;20021;-76
2022/04/23 07:29:06;;;;;;;13.32;11.38;;;13.50;99.90;;;;;;5015792;28;20491;-76
2022/04/23 07:31:32;;;;;;;12.57;11.25;;;13.50;99.90;;;;;;5030899;28;20033;-76
2022/04/23 07:39:27;;;;;;;13.18;11.57;;;13.70;99.90;;;;;;5053088;28;20033;-76
2022/04/23 07:41:54;;;;;;;11.02;9.93;;;13.80;99.90;;;;;;5035564;28;20025;-76
2022/04/23 07:44:23;;;;;;;9.30;8.40;;;14.00;99.90;;;;;;5047799;28;20020;-75
2022/04/23 07:46:49;;;;;;;12.23;11.00;;;14.10;99.90;;;;;;5014300;28;20120;-76
2022/04/23 07:49:15;;;;;;;11.38;10.07;;;14.00;99.90;;;;;;5043136;28;20382;-75
2022/04/23 07:51:42;;;;;;;11.73;10.43;;;14.20;99.90;;;;;;5037868;28;20050;-76
2022/04/23 07:54:08;;;;;;;12.55;11.25;;;14.40;99.90;;;;;;5036024;28;20057;-76
2022/04/23 07:56:35;;;;;;;10.57;9.50;;;14.40;99.90;;;;;;5035253;28;20147;-76
2022/04/23 07:59:00;;;;;;;10.75;9.43;;;14.70;99.90;;;;;;5036976;28;20040;-76
2022/04/23 08:01:26;;;;;;;12.82;11.52;;;15.00;99.90;;;;;;5018769;28;20661;-76
2022/04/23 08:03:51;;;;;;;12.15;10.95;;;14.80;99.90;;;;;;4996684;28;20077;-77
2022/04/23 08:06:17;;;;;;;13.45;12.05;;;14.50;99.90;;;;;;5014520;28;20044;-76
2022/04/23 08:08:43;;;;;;;15.60;14.00;;;14.60;99.90;;;;;;5037073;28;20035;-77
2022/04/23 08:11:09;;;;;;;17.58;14.98;;;14.90;99.90;;;;;;5036896;28;20040;-76
2022/04/23 08:13:34;;;;;;;15.88;13.48;;;15.10;99.90;;;;;;5036707;28;20037;-80
2022/04/23 08:16:00;;;;;;;15.02;13.27;;;15.30;99.90;;;;;;5020665;28;20037;-76
2022/04/23 08:18:27;;;;;;;14.65;13.07;;;15.60;99.90;;;;;;5038268;28;20037;-76
2022/04/23 08:20:53;;;;;;;15.20;13.43;;;15.50;99.90;;;;;;5021373;28;20114;-76
2022/04/23 08:23:19;;;;;;;15.65;14.02;;;15.50;99.90;;;;;;5030331;28;20075;-76
2022/04/23 08:25:46;;;;;;;15.15;13.55;;;15.50;99.90;;;;;;5035759;28;20043;-75
2022/04/23 08:30:57;;;;;;;20.13;15.93;;;15.80;99.90;;;;;;5036875;28;20052;-75
2022/04/23 08:33:23;;;;;;;16.33;14.63;;;15.60;99.90;;;;;;5036863;28;20086;-76
2022/04/23 08:35:50;;;;;;;14.57;12.90;;;15.70;99.90;;;;;;5036315;28;20419;-76
2022/04/23 08:38:16;;;;;;;13.75;12.32;;;16.00;99.90;;;;;;5035591;28;20494;-76
2022/04/23 08:40:44;;;;;;;14.88;13.23;;;16.20;99.90;;;;;;5037868;28;20029;-76
2022/04/23 08:43:10;;;;;;;14.90;13.02;;;16.20;99.90;;;;;;5034942;28;20086;-76
2022/04/23 08:45:37;;;;;;;15.10;13.50;;;16.10;99.90;;;;;;5037227;28;20199;-75
2022/04/23 08:48:12;;;;;;;12.70;11.38;;;16.20;99.90;;;;;;5036164;28;20103;-77
2022/04/23 08:50:38;;;;;;;12.35;11.13;;;16.50;99.90;;;;;;5029668;28;20029;-76
2022/04/23 08:53:11;;;;;;;12.40;11.18;;;16.70;99.90;;;;;;5034268;28;20492;-76
2022/04/23 08:55:40;;;;;;;14.18;12.68;;;16.70;99.90;;;;;;5047023;28;22457;-76
2022/04/23 08:58:05;;;;;;;13.30;11.90;;;16.80;99.90;;;;;;5034722;28;20271;-77
2022/04/23 09:00:31;;;;;;;13.77;12.32;;;17.00;99.90;;;;;;5014745;28;20067;-76
2022/04/23 09:02:56;;;;;;;13.20;11.40;;;16.70;99.90;;;;;;5036621;28;20058;-76
2022/04/23 09:05:25;;;;;;;14.00;12.15;;;17.00;99.90;;;;;;5035125;28;20048;-76
2022/04/23 09:07:53;;;;;;;15.60;12.13;;;17.00;99.90;;;;;;5035955;28;20532;-76
2022/04/23 09:10:20;;;;;;;13.20;11.77;;;17.00;99.90;;;;;;5035439;28;20523;-75
2022/04/23 09:12:56;;;;;;;14.20;12.68;;;17.00;99.90;;;;;;5035027;28;20040;-75
2022/04/23 09:23:46;;;;;;;12.80;11.50;;;17.30;99.90;;;;;;5028143;28;20489;-76
2022/04/23 09:26:20;;;;;;;12.13;10.88;;;17.60;99.90;;;;;;5040888;28;20032;-75
2022/04/23 09:28:48;;;;;;;13.43;12.02;;;17.60;99.90;;;;;;5035077;28;20147;-76
2022/04/23 09:31:15;;;;;;;14.32;12.82;;;17.40;99.90;;;;;;5036582;28;20032;-76
2022/04/23 09:33:49;;;;;;;11.13;9.93;;;17.30;99.90;;;;;;5031666;28;20136;-76
2022/04/23 09:36:15;;;;;;;12.25;11.05;;;17.60;99.90;;;;;;5031068;28;20112;-76
2022/04/23 09:38:40;;;;;;;14.98;12.40;;;17.50;99.90;;;;;;5030571;28;20141;-76
2022/04/23 09:41:16;;;;;;;12.05;10.50;;;17.10;99.90;;;;;;5014386;28;20037;-76
2022/04/23 09:43:43;;;;;;;10.20;9.18;;;17.20;99.90;;;;;;5035514;28;20037;-77
2022/04/23 09:46:09;;;;;;;12.32;11.13;;;16.90;99.90;;;;;;5029557;28;20043;-76
2022/04/23 09:48:40;;;;;;;12.35;11.05;;;16.70;99.90;;;;;;5029483;28;20555;-76
2022/04/23 09:51:21;;;;;;;15.52;11.90;;;16.90;99.90;;;;;;5027324;28;20029;-76
2022/04/23 09:53:48;;;;;;;14.23;12.52;;;16.70;99.90;;;;;;5028148;28;20115;-77
2022/04/23 09:56:14;;;;;;;14.20;12.00;;;16.80;99.90;;;;;;5035792;28;20041;-76
2022/04/23 09:58:40;;;;;;;13.40;12.00;;;17.00;99.90;;;;;;5015168;28;20032;-80
2022/04/23 10:01:08;;;;;;;12.40;10.25;;;16.80;99.90;;;;;;5013435;28;20032;-78
2022/04/23 10:03:34;;;;;;;11.70;10.50;;;16.80;99.90;;;;;;5032866;28;20114;-78
2022/04/23 10:06:02;;;;;;;11.68;10.43;;;17.30;99.90;;;;;;5024294;28;20057;-76
2022/04/23 10:08:30;;;;;;;12.13;10.40;;;17.00;99.90;;;;;;5024691;28;20044;-77
2022/04/23 10:11:00;;;;;;;14.38;10.90;;;17.10;99.90;;;;;;5037115;28;20493;-77
2022/04/23 10:13:29;;;;;;;11.70;9.82;;;17.20;99.90;;;;;;5041491;28;20041;-78
2022/04/23 10:15:57;;;;;;;11.68;10.00;;;17.50;99.90;;;;;;5039848;28;20689;-78
2022/04/23 10:18:26;;;;;;;10.35;9.00;;;17.70;99.90;;;;;;5033998;28;20032;-78
2022/04/23 10:20:55;;;;;;;9.73;8.73;;;17.80;99.90;;;;;;5041622;28;20480;-78
2022/04/23 10:23:30;;;;;;;9.23;7.90;;;17.90;99.90;;;;;;5017062;28;20028;-77
2022/04/23 10:26:14;;;;;;;13.23;11.73;;;18.40;99.90;;;;;;5040282;28;20055;-79
2022/04/23 10:28:44;;;;;;;10.77;9.57;;;18.40;99.90;;;;;;5042973;28;20036;-78
2022/04/23 10:31:18;;;;;;;8.57;7.10;;;19.10;99.90;;;;;;5054502;28;20398;-75
2022/04/23 10:33:50;;;;;;;12.07;9.90;;;19.40;99.90;;;;;;5040053;28;20032;-77
2022/04/23 10:36:16;;;;;;;10.70;9.43;;;19.20;99.90;;;;;;5038476;28;20163;-77
2022/04/23 10:38:45;;;;;;;13.38;10.52;;;19.20;99.90;;;;;;5039966;28;20041;-77
2022/04/23 10:41:13;;;;;;;12.52;10.50;;;18.60;99.90;;;;;;5039551;28;20034;-79
2022/04/23 10:43:58;;;;;;;11.75;9.98;;;18.50;99.90;;;;;;5023822;28;20128;-77
2022/04/23 10:46:41;;;;;;;12.13;10.82;;;18.80;99.90;;;;;;5035386;28;20055;-79
2022/04/23 10:49:16;;;;;;;11.82;10.15;;;19.00;99.90;;;;;;5033858;28;20300;-77
2022/04/23 10:51:49;;;;;;;10.30;8.63;;;19.30;99.90;;;;;;5041926;28;20033;-79
2022/04/23 10:54:16;;;;;;;10.57;9.20;;;19.80;99.90;;;;;;5038787;28;20464;-78
2022/04/23 10:56:47;;;;;;;12.43;10.68;;;19.70;99.90;;;;;;5036638;28;20137;-75
2022/04/23 10:59:44;;;;;;;12.75;11.23;;;19.50;99.90;;;;;;5039605;28;20033;-76
2022/04/23 11:02:21;;;;;;;13.13;10.20;;;19.40;99.90;;;;;;5028803;28;20049;-77
2022/04/23 11:13:29;;;;;;;12.40;9.15;;;19.60;99.90;;;;;;5042699;28;22040;-77
2022/04/23 11:16:08;;;;;;;8.45;7.47;;;20.00;99.90;;;;;;5030142;28;20717;-77
2022/04/23 11:18:35;;;;;;;11.98;10.07;;;20.10;99.90;;;;;;5037211;28;20056;-76
2022/04/23 11:21:17;;;;;;;11.00;9.85;;;20.00;99.90;;;;;;5053627;28;20052;-76
2022/04/23 11:23:45;;;;;;;10.90;9.02;;;20.00;99.90;;;;;;5039369;28;20025;-77
2022/04/23 11:26:41;;;;;;;12.07;9.48;;;20.40;99.90;;;;;;5036554;28;20512;-76
2022/04/23 11:29:07;;;;;;;12.73;9.63;;;20.20;99.90;;;;;;5015303;28;20045;-77
2022/04/23 11:31:33;;;;;;;9.80;8.27;;;19.60;99.90;;;;;;5039486;28;20024;-78
2022/04/23 11:34:00;;;;;;;11.68;9.45;;;19.70;99.90;;;;;;5038885;28;20130;-77
2022/04/23 11:36:34;;;;;;;9.13;7.55;;;19.70;99.90;;;;;;5037791;28;20680;-76
2022/04/23 11:39:08;;;;;;;9.25;7.97;;;20.30;99.90;;;;;;5030459;28;20067;-77
2022/04/23 11:41:50;;;;;;;12.85;10.85;;;19.90;99.90;;;;;;5039071;28;20479;-78
2022/04/23 11:44:45;;;;;;;11.40;10.18;;;19.40;99.90;;;;;;5036822;28;20024;-76
2022/04/23 11:47:08;;;;;;;11.48;10.27;;;19.00;99.90;;;;;;5036241;28;22564;-78
2022/04/23 11:49:34;;;;;;;12.50;10.35;;;19.30;99.90;;;;;;5054056;28;20377;-77
2022/04/23 11:52:07;;;;;;;11.00;8.30;;;19.70;99.90;;;;;;5051632;28;20041;-77
2022/04/23 11:54:41;;;;;;;10.48;8.43;;;19.90;99.90;;;;;;5036037;28;20037;-77
2022/04/23 11:57:09;;;;;;;8.52;7.30;;;19.60;99.90;;;;;;4999415;28;20118;-77
2022/04/23 11:59:46;;;;;;;7.53;6.63;;;19.90;99.90;;;;;;5037956;28;20064;-76
2022/04/23 12:02:36;;;;;;;7.80;6.97;;;19.80;99.90;;;;;;5036911;28;20222;-77
2022/04/23 12:05:03;;;;;;;9.02;7.03;;;20.00;99.90;;;;;;5047492;28;20048;-77
2022/04/23 12:07:32;;;;;;;8.73;7.32;;;20.40;99.90;;;;;;5031334;28;20075;-77
2022/04/23 12:09:59;;;;;;;11.82;8.90;;;20.60;99.90;;;;;;5037246;28;20051;-77
2022/04/23 12:12:30;;;;;;;12.60;9.18;;;20.00;99.90;;;;;;5052630;28;21045;-76
2022/04/23 12:15:00;;;;;;;10.07;7.85;;;19.80;99.90;;;;;;5020137;28;20029;-77
2022/04/23 12:17:31;;;;;;;9.82;8.18;;;19.90;99.90;;;;;;5037115;28;20187;-77
2022/04/23 12:19:57;;;;;;;8.85;7.35;;;20.20;99.90;;;;;;5037265;28;20028;-76
2022/04/23 12:22:31;;;;;;;8.10;7.25;;;20.10;99.90;;;;;;5036179;28;20029;-77
2022/04/23 12:25:15;;;;;;;9.75;7.82;;;20.30;99.90;;;;;;5035909;28;20029;-79
2022/04/23 12:28:01;;;;;;;8.93;8.02;;;20.10;99.90;;;;;;5035610;28;20120;-77
2022/04/23 12:42:11;;;;;;;11.57;10.38;;;19.30;99.90;;;;;;5052284;28;20033;-77
2022/04/23 12:44:42;;;;;;;8.07;6.82;;;19.30;99.90;;;;;;5035501;28;20044;-76
2022/04/23 12:47:12;;;;;;;10.20;8.40;;;20.00;99.90;;;;;;5036536;28;20033;-77
2022/04/23 12:49:47;;;;;;;;;;;20.00;99.90;;;;;;4999198;28;20596;-77
2022/04/23 12:52:27;;;;;;;9.70;8.70;;;19.80;99.90;;;;;;5046407;28;19975;-77
2022/04/23 12:55:13;;;;;;;8.20;7.40;;;19.20;99.90;;;;;;5012527;28;20612;-77
2022/04/23 12:57:59;;;;;;;11.88;8.55;;;19.20;99.90;;;;;;5035717;28;20513;-77
2022/04/23 13:00:26;;;;;;;11.18;9.50;;;19.20;99.90;;;;;;5004012;28;20033;-77
2022/04/23 13:02:57;;;;;;;9.57;8.48;;;19.60;99.90;;;;;;5029009;28;20064;-77
2022/04/23 13:05:23;;;;;;;18.00;10.45;;;19.70;99.90;;;;;;5033187;28;20066;-76
2022/04/23 13:10:35;;;;;;;7.88;7.07;;;19.70;99.90;;;;;;5036598;28;20120;-78
2022/04/23 13:13:01;;;;;;;7.72;6.85;;;20.10;99.90;;;;;;5035097;28;20122;-77
2022/04/23 13:15:27;;;;;;;9.40;7.65;;;20.00;99.90;;;;;;5034214;28;20482;-77
2022/04/23 13:17:53;;;;;;;8.40;7.40;;;20.40;99.90;;;;;;5028881;28;20416;-76
2022/04/23 13:20:19;;;;;;;9.90;8.57;;;20.20;99.90;;;;;;5029458;28;20029;-77
2022/04/23 13:22:45;;;;;;;8.60;7.70;;;19.80;99.90;;;;;;5034841;28;20025;-77